createdAt,value
2022-10-05T00:01:41.934Z,9.85
2022-10-05T00:03:44.026Z,9.89
2022-10-05T00:05:46.156Z,9.85
2022-10-05T00:07:48.200Z,9.89
2022-10-05T00:10:14.044Z,9.87
2022-10-05T00:12:17.781Z,9.86
2022-10-05T00:14:36.013Z,9.83
2022-10-05T00:16:38.056Z,9.79
2022-10-05T00:18:40.102Z,9.80
2022-10-05T00:20:42.246Z,9.82
2022-10-05T00:22:44.234Z,9.81
2022-10-05T00:24:47.235Z,9.80
2022-10-05T00:26:54.198Z,9.81
2022-10-05T00:28:59.752Z,9.79
2022-10-05T00:31:01.743Z,9.83
2022-10-05T00:33:03.795Z,9.80
2022-10-05T00:35:06.562Z,9.81
2022-10-05T00:37:08.464Z,9.74
2022-10-05T00:39:10.549Z,9.74
2022-10-05T00:41:32.074Z,9.76
2022-10-05T00:44:04.263Z,9.75
2022-10-05T00:46:29.242Z,9.78
2022-10-05T00:48:53.780Z,9.78
2022-10-05T00:51:22.330Z,9.78
2022-10-05T00:53:49.782Z,9.80
2022-10-05T00:56:20.005Z,9.78
2022-10-05T00:59:08.656Z,9.71
2022-10-05T01:01:24.447Z,9.70
2022-10-05T01:03:47.953Z,9.70
2022-10-05T01:06:08.263Z,9.73
2022-10-05T01:08:25.159Z,9.74
2022-10-05T01:10:41.580Z,9.74
2022-10-05T01:13:24.002Z,9.76
2022-10-05T01:15:45.982Z,9.78
2022-10-05T01:18:25.339Z,9.78
2022-10-05T01:21:00.043Z,9.82
2022-10-05T01:23:52.673Z,9.82
2022-10-05T01:26:33.950Z,9.78
2022-10-05T01:28:41.588Z,9.81
2022-10-05T01:30:55.122Z,9.89
2022-10-05T01:33:29.188Z,9.83
2022-10-05T01:36:16.224Z,9.83
2022-10-05T01:38:31.940Z,9.83
2022-10-05T01:41:04.251Z,9.83
2022-10-05T01:43:43.199Z,9.80
2022-10-05T01:46:06.712Z,9.82
2022-10-05T01:48:17.464Z,9.81
2022-10-05T01:50:57.867Z,9.81
2022-10-05T01:53:32.458Z,9.82
2022-10-05T01:55:45.353Z,9.85
2022-10-05T01:58:16.792Z,9.86
2022-10-05T02:00:19.216Z,9.88
2022-10-05T02:02:22.380Z,9.87
2022-10-05T02:06:57.583Z,9.91
2022-10-05T02:09:42.345Z,9.91
2022-10-05T02:11:48.670Z,9.89
2022-10-05T02:13:58.043Z,9.92
2022-10-05T02:16:14.663Z,9.89
2022-10-05T02:18:28.715Z,9.88
2022-10-05T02:20:32.514Z,9.87
2022-10-05T02:22:46.608Z,9.90
2022-10-05T02:24:56.389Z,9.89
2022-10-05T02:26:58.387Z,9.88
2022-10-05T02:29:03.537Z,9.90
2022-10-05T02:31:17.724Z,9.90
2022-10-05T02:33:32.987Z,9.91
2022-10-05T02:35:35.083Z,9.89
2022-10-05T02:37:55.977Z,9.93
2022-10-05T02:40:04.927Z,9.93
2022-10-05T02:42:50.173Z,9.96
2022-10-05T02:45:02.004Z,9.94
2022-10-05T02:47:46.774Z,9.92
2022-10-05T02:50:00.816Z,9.95
2022-10-05T02:52:27.265Z,9.93
2022-10-05T02:54:50.045Z,9.93
2022-10-05T02:57:05.240Z,9.91
2022-10-05T02:59:45.543Z,9.91
2022-10-05T03:01:52.175Z,9.93
2022-10-05T03:04:36.861Z,9.93
2022-10-05T03:06:51.186Z,9.90
2022-10-05T03:09:05.449Z,9.91
2022-10-05T03:11:43.495Z,9.87
2022-10-05T03:14:46.644Z,9.87
2022-10-05T03:16:54.429Z,9.85
2022-10-05T03:19:37.005Z,9.87
2022-10-05T03:21:56.177Z,9.81
2022-10-05T03:24:13.132Z,9.80
2022-10-05T03:26:42.988Z,9.85
2022-10-05T03:29:06.715Z,9.84
2022-10-05T03:31:19.473Z,9.82
2022-10-05T03:33:45.828Z,9.87
2022-10-05T03:36:05.472Z,9.87
2022-10-05T03:38:18.821Z,9.86
2022-10-05T03:41:04.712Z,9.83
2022-10-05T03:43:34.406Z,9.89
2022-10-05T03:45:53.146Z,9.89
2022-10-05T03:48:31.773Z,9.93
2022-10-05T03:51:05.842Z,9.92
2022-10-05T03:53:25.663Z,9.92
2022-10-05T03:55:47.669Z,9.87
2022-10-05T03:57:50.343Z,9.84
2022-10-05T04:00:01.390Z,9.85
2022-10-05T04:02:10.571Z,9.87
2022-10-05T04:04:36.578Z,9.88
2022-10-05T04:06:47.478Z,9.91
2022-10-05T04:09:26.704Z,9.90
2022-10-05T04:11:49.067Z,9.88
2022-10-05T04:14:03.744Z,9.91
2022-10-05T04:16:18.594Z,9.91
2022-10-05T04:18:33.952Z,9.89
2022-10-05T04:20:45.859Z,9.86
2022-10-05T04:23:44.215Z,9.85
2022-10-05T04:26:03.074Z,9.84
2022-10-05T04:28:12.318Z,9.83
2022-10-05T04:30:19.479Z,9.80
2022-10-05T04:32:57.411Z,9.82
2022-10-05T04:35:21.883Z,9.80
2022-10-05T04:37:51.103Z,9.78
2022-10-05T04:40:10.207Z,9.80
2022-10-05T04:42:36.790Z,9.79
2022-10-05T04:45:14.442Z,9.76
2022-10-05T12:02:43.896Z,21.03
2022-10-05T12:05:11.605Z,21.59
2022-10-05T12:07:54.123Z,22.02
2022-10-05T12:10:44.851Z,19.11
2022-10-05T12:13:13.647Z,18.06
2022-10-05T12:15:48.782Z,17.53
2022-10-05T12:18:08.370Z,17.31
2022-10-05T12:20:33.966Z,17.25
2022-10-05T12:22:42.197Z,17.20
2022-10-05T12:25:17.978Z,17.15
2022-10-05T12:27:25.338Z,17.10
2022-10-05T12:30:09.993Z,17.13
2022-10-05T12:32:22.568Z,17.00
2022-10-05T12:34:47.827Z,17.02
2022-10-05T12:37:39.306Z,16.97
2022-10-05T12:39:56.186Z,17.03
2022-10-05T12:42:29.374Z,16.90
2022-10-05T12:44:51.746Z,16.82
2022-10-05T12:47:19.337Z,16.81
2022-10-05T12:49:52.258Z,16.76
2022-10-05T12:52:37.134Z,16.76
2022-10-05T12:55:41.998Z,16.81
2022-10-05T12:58:27.296Z,16.82
2022-10-05T13:01:46.861Z,16.83
2022-10-05T13:04:47.073Z,16.73
2022-10-05T13:07:15.444Z,16.77
2022-10-05T13:09:50.089Z,16.80
2022-10-05T13:12:57.129Z,16.81
2022-10-05T13:16:04.789Z,16.82
2022-10-05T13:18:29.863Z,16.83
2022-10-05T13:21:03.686Z,16.88
2022-10-05T13:23:44.317Z,16.87
2022-10-05T13:26:12.882Z,16.87
2022-10-05T13:28:47.170Z,16.88
2022-10-05T13:31:23.733Z,16.86
2022-10-05T13:34:18.809Z,16.85
2022-10-05T13:37:22.753Z,16.86
2022-10-05T13:40:28.002Z,16.86
2022-10-05T13:43:04.079Z,16.89
2022-10-05T13:46:11.231Z,16.85
2022-10-05T13:48:57.948Z,16.87
2022-10-05T13:51:46.319Z,16.84
2022-10-05T13:54:19.651Z,16.87
2022-10-05T13:56:23.586Z,16.81
2022-10-05T13:58:40.596Z,16.86
2022-10-05T14:00:59.767Z,16.93
2022-10-05T14:03:02.276Z,16.94
2022-10-05T14:05:29.626Z,16.91
2022-10-05T14:08:16.544Z,16.86
2022-10-05T14:10:35.267Z,16.89
2022-10-05T14:12:55.882Z,16.90
2022-10-05T14:15:41.928Z,16.88
2022-10-05T14:18:27.574Z,16.85
2022-10-05T14:21:03.154Z,16.85
2022-10-05T14:23:27.404Z,16.82
2022-10-05T14:25:54.148Z,16.79
2022-10-05T14:28:20.740Z,16.81
2022-10-05T14:30:41.537Z,16.78
2022-10-05T14:33:06.345Z,16.72
2022-10-05T14:35:53.824Z,16.70
2022-10-05T14:38:50.336Z,16.67
2022-10-05T14:41:19.238Z,16.68
2022-10-05T14:44:13.658Z,16.63
2022-10-05T14:46:36.558Z,16.62
2022-10-05T14:49:22.620Z,16.61
2022-10-05T14:51:45.035Z,16.61
2022-10-05T14:55:05.418Z,16.58
2022-10-05T14:57:42.431Z,16.55
2022-10-05T15:00:18.758Z,16.53
2022-10-05T15:02:52.746Z,16.55
2022-10-05T15:05:31.594Z,16.56
2022-10-05T15:07:57.331Z,16.52
2022-10-05T15:10:56.639Z,16.48
2022-10-05T15:13:25.820Z,16.45
2022-10-05T15:16:03.334Z,16.43
2022-10-05T15:18:53.697Z,16.45
2022-10-05T15:21:09.139Z,16.45
2022-10-05T15:23:47.416Z,16.43
2022-10-05T15:26:21.871Z,16.43
2022-10-05T15:28:56.369Z,16.41
2022-10-05T15:31:12.322Z,16.38
2022-10-05T15:33:37.443Z,16.35
2022-10-05T15:36:00.750Z,16.34
2022-10-05T15:38:14.030Z,16.25
2022-10-05T15:40:32.968Z,16.26
2022-10-05T15:42:45.313Z,16.19
2022-10-05T15:45:20.361Z,16.24
2022-10-05T15:47:49.926Z,16.24
2022-10-05T15:50:26.212Z,16.26
2022-10-05T15:52:44.334Z,16.24
2022-10-05T15:55:22.185Z,16.23
2022-10-05T15:58:11.596Z,16.19
2022-10-05T16:00:15.638Z,16.14
2022-10-05T16:02:26.801Z,16.15
2022-10-05T16:04:39.792Z,16.15
2022-10-05T16:07:12.145Z,16.13
2022-10-05T16:09:44.299Z,16.10
2022-10-05T16:12:04.732Z,16.05
2022-10-05T16:14:37.432Z,16.04
2022-10-05T16:17:05.039Z,16.00
2022-10-05T16:20:04.222Z,15.94
2022-10-05T16:22:59.438Z,15.94
2022-10-05T16:25:51.126Z,15.87
2022-10-05T16:28:41.616Z,15.86
2022-10-05T16:31:18.781Z,15.83
2022-10-05T16:34:23.287Z,15.77
2022-10-05T16:36:59.216Z,15.71
2022-10-05T16:39:57.256Z,15.71
2022-10-05T16:42:42.167Z,15.67
2022-10-05T16:45:45.012Z,15.64
2022-10-05T16:48:26.713Z,15.61
2022-10-05T16:50:58.172Z,15.54
2022-10-05T16:53:43.336Z,15.48
2022-10-05T16:56:07.760Z,15.43
2022-10-05T16:59:39.808Z,15.38
2022-10-05T17:02:36.614Z,15.31
2022-10-05T17:05:24.152Z,15.22
2022-10-05T17:08:13.679Z,15.18
2022-10-05T17:10:46.015Z,15.09
2022-10-05T17:13:21.444Z,14.97
2022-10-05T17:15:53.634Z,14.92
2022-10-05T17:18:11.312Z,14.82
2022-10-05T17:20:42.984Z,14.80
2022-10-05T17:23:13.485Z,14.76
2022-10-05T17:25:29.075Z,14.72
2022-10-05T17:27:56.719Z,14.69
2022-10-05T17:30:29.448Z,14.68
2022-10-05T17:32:39.663Z,14.61
2022-10-05T17:35:00.559Z,14.59
2022-10-05T17:37:27.318Z,14.57
2022-10-05T17:39:52.705Z,14.52
2022-10-05T17:41:54.720Z,14.49
2022-10-05T17:44:16.327Z,14.47
2022-10-05T17:46:38.252Z,14.40
2022-10-05T17:48:49.363Z,14.39
2022-10-05T17:51:10.047Z,14.38
2022-10-05T17:53:41.710Z,14.36
2022-10-05T17:55:45.071Z,14.35
2022-10-05T17:57:47.100Z,14.32
2022-10-05T17:59:57.198Z,14.32
2022-10-05T18:02:26.808Z,14.32
2022-10-05T18:04:32.514Z,14.29
2022-10-05T18:06:36.528Z,14.27
2022-10-05T18:08:38.637Z,14.25
2022-10-05T18:11:35.436Z,14.25
2022-10-05T18:14:23.219Z,14.22
2022-10-05T18:17:03.184Z,14.21
2022-10-05T18:19:25.474Z,14.20
2022-10-05T18:22:26.788Z,14.22
2022-10-05T18:25:49.860Z,14.15
2022-10-05T18:28:55.558Z,14.13
2022-10-05T18:31:45.528Z,14.09
2022-10-05T18:34:35.244Z,14.06
2022-10-05T18:38:08.940Z,14.06
2022-10-05T18:41:04.310Z,14.05
2022-10-05T18:43:42.776Z,13.97
2022-10-05T18:46:22.052Z,13.96
2022-10-05T18:49:22.758Z,13.90
2022-10-05T18:52:13.904Z,13.88
2022-10-05T18:54:57.785Z,13.84
2022-10-05T18:57:19.928Z,13.73
2022-10-05T18:59:39.964Z,13.72
2022-10-05T19:02:47.387Z,13.66
2022-10-05T19:05:48.926Z,13.62
2022-10-05T19:08:28.580Z,13.56
2022-10-05T19:10:56.568Z,13.55
2022-10-05T19:13:31.038Z,13.48
2022-10-05T19:16:22.634Z,13.47
2022-10-05T19:19:18.032Z,13.47
2022-10-05T19:22:19.494Z,13.47
2022-10-05T19:25:15.055Z,13.44
2022-10-05T19:27:53.123Z,13.44
2022-10-05T19:30:23.128Z,13.47
2022-10-05T19:32:57.169Z,13.45
2022-10-05T19:35:48.588Z,13.43
2022-10-05T19:38:43.829Z,13.48
2022-10-05T19:41:37.448Z,13.46
2022-10-05T19:44:35.403Z,13.47
2022-10-05T19:47:04.332Z,13.48
2022-10-05T19:49:09.380Z,13.48
2022-10-05T19:51:29.782Z,13.46
2022-10-05T19:53:37.126Z,13.48
2022-10-05T19:55:41.763Z,13.51
2022-10-05T19:57:55.205Z,13.50
2022-10-05T19:59:58.075Z,13.52
2022-10-05T20:02:00.324Z,13.55
2022-10-05T20:04:02.792Z,13.53
2022-10-05T20:06:07.310Z,13.52
2022-10-05T20:08:20.035Z,13.54
2022-10-05T20:10:29.449Z,13.54
2022-10-05T20:13:01.877Z,13.54
2022-10-05T20:15:34.800Z,13.54
2022-10-05T20:17:55.070Z,13.59
2022-10-05T20:20:22.825Z,13.63
2022-10-05T20:22:37.388Z,13.60
2022-10-05T20:24:50.870Z,13.57
2022-10-05T20:27:12.599Z,13.63
2022-10-05T20:29:17.239Z,13.61
2022-10-05T20:31:20.261Z,13.56
2022-10-05T20:33:26.808Z,13.61
2022-10-05T20:35:30.751Z,13.62
2022-10-05T20:37:33.146Z,13.63
2022-10-05T20:39:35.149Z,13.58
2022-10-05T20:41:37.202Z,13.59
2022-10-05T20:43:39.451Z,13.58
2022-10-05T20:45:43.430Z,13.57
2022-10-05T20:47:47.432Z,13.57
2022-10-05T20:49:49.435Z,13.58
2022-10-05T20:52:11.238Z,13.57
2022-10-05T20:54:33.658Z,13.53
2022-10-05T20:56:56.186Z,13.53
2022-10-05T20:59:18.678Z,13.51
2022-10-05T21:01:47.995Z,13.51
2022-10-05T21:04:10.622Z,13.50
2022-10-05T21:06:29.543Z,13.51
2022-10-05T21:08:54.299Z,13.50
2022-10-05T21:11:14.828Z,13.48
2022-10-05T21:13:38.667Z,13.45
2022-10-05T21:16:01.120Z,13.47
2022-10-05T21:18:23.489Z,13.43
2022-10-05T21:20:47.903Z,13.41
2022-10-05T21:23:12.275Z,13.40
2022-10-05T21:25:34.711Z,13.43
2022-10-05T21:27:57.168Z,13.43
2022-10-05T21:30:19.584Z,13.41
2022-10-05T21:32:44.371Z,13.40
2022-10-05T21:35:07.700Z,13.39
2022-10-05T21:37:30.046Z,13.38
2022-10-05T21:39:52.378Z,13.38
2022-10-05T21:42:14.702Z,13.36
2022-10-05T21:44:37.116Z,13.33
2022-10-05T21:47:00.265Z,13.31
2022-10-05T21:49:22.594Z,13.27
2022-10-05T21:51:44.958Z,13.27
2022-10-05T21:54:13.401Z,13.29
2022-10-05T21:56:37.940Z,13.29
2022-10-05T21:59:01.269Z,13.27
2022-10-05T22:01:23.589Z,13.24
2022-10-05T22:03:57.701Z,13.22
2022-10-05T22:06:20.119Z,13.19
2022-10-05T22:08:42.537Z,13.19
2022-10-05T22:11:14.140Z,13.16
2022-10-05T22:13:45.561Z,13.14
2022-10-05T22:16:07.963Z,13.16
2022-10-05T22:18:30.686Z,13.14
2022-10-05T22:20:53.377Z,13.11
2022-10-05T22:23:15.853Z,13.07
2022-10-05T22:25:38.934Z,13.04
2022-10-05T22:28:02.019Z,13.04
2022-10-05T22:30:24.534Z,13.06
2022-10-05T22:32:46.908Z,13.00
2022-10-05T22:35:11.792Z,13.00
2022-10-05T22:37:37.893Z,12.97
2022-10-05T22:40:00.326Z,12.93
2022-10-05T22:42:22.766Z,12.92
2022-10-05T22:44:45.149Z,12.92
2022-10-05T22:47:07.585Z,12.86
2022-10-05T22:49:29.952Z,12.87
2022-10-05T22:51:52.452Z,12.83
2022-10-05T22:54:15.284Z,12.77
2022-10-05T22:56:37.629Z,12.77
2022-10-05T22:58:59.953Z,12.74
2022-10-05T23:01:22.452Z,12.74
2022-10-05T23:03:45.041Z,12.73
2022-10-05T23:06:10.630Z,12.70
2022-10-05T23:08:33.734Z,12.70
2022-10-05T23:11:03.553Z,12.68
2022-10-05T23:13:25.911Z,12.65
2022-10-05T23:15:48.251Z,12.64
2022-10-05T23:18:12.128Z,12.63
2022-10-05T23:20:34.449Z,12.61
2022-10-05T23:22:56.853Z,12.62
2022-10-05T23:25:19.411Z,12.58
2022-10-05T23:27:42.339Z,12.55
2022-10-05T23:30:06.945Z,12.51
2022-10-05T23:32:29.347Z,12.49
2022-10-05T23:34:51.732Z,12.49
2022-10-05T23:37:14.126Z,12.46
2022-10-05T23:39:36.487Z,12.45
2022-10-05T23:42:00.284Z,12.43
2022-10-05T23:44:23.139Z,12.38
2022-10-05T23:46:45.529Z,12.34
2022-10-05T23:49:08.776Z,12.32
2022-10-05T23:51:31.169Z,12.32
2022-10-05T23:53:53.562Z,12.32
2022-10-05T23:56:15.966Z,12.29
2022-10-05T23:58:38.672Z,12.26
